Time;durP1;ratioP1;P1;durP2;ratioP2;P2;SDS_P1;SDS_P2;PMS_P1;PMS_P2;Temp;Humidity;BMP_temperature;BMP_pressure;BME280_temperature;BME280_humidity;BME280_pressure;Samples;Min_cycle;Max_cycle;Signal;HPM_P1;HPM_P2
2023/09/08 00:02:09;;;;;;;3.78;3.47;;;;;;;24.16;47.42;95597.94;6061938;28;108905;-64
2023/09/08 00:05:13;;;;;;;4.28;3.88;;;;;;;24.14;47.84;95606.25;6061998;28;108807;-65
2023/09/08 00:08:16;;;;;;;3.80;3.50;;;;;;;24.15;47.67;95607.06;6062292;28;108585;-64
2023/09/08 00:11:20;;;;;;;3.97;3.67;;;;;;;24.14;47.79;95594.78;6051414;28;108949;-64
2023/09/08 00:14:23;;;;;;;3.80;3.50;;;;;;;24.14;47.80;95597.44;6061744;28;109146;-65
2023/09/08 00:17:26;;;;;;;3.75;3.45;;;;;;;24.15;47.69;95602.50;6061761;28;108870;-65
2023/09/08 00:20:30;;;;;;;3.90;3.60;;;;;;;24.14;47.90;95600.91;6057706;28;108848;-65
2023/09/08 00:23:33;;;;;;;3.97;3.63;;;;;;;24.14;47.89;95594.78;6056687;28;109101;-65
2023/09/08 00:26:37;;;;;;;3.60;3.30;;;;;;;24.13;47.75;95593.19;6061981;28;108608;-66
2023/09/08 00:29:40;;;;;;;3.70;3.40;;;;;;;24.13;47.78;95587.84;6061612;28;108773;-65
2023/09/08 00:32:43;;;;;;;3.83;3.53;;;;;;;24.15;47.80;95593.69;6051791;28;109327;-64
2023/09/08 00:35:49;;;;;;;3.60;3.30;;;;;;;24.14;47.78;95590.22;6061141;28;108885;-65
2023/09/08 00:38:53;;;;;;;3.90;3.60;;;;;;;24.13;47.72;95591.31;6061549;28;108677;-65
2023/09/08 00:41:57;;;;;;;3.90;3.60;;;;;;;24.11;47.66;95582.81;6061803;28;108902;-64
2023/09/08 00:45:01;;;;;;;3.80;3.50;;;;;;;24.12;47.77;95583.59;6050165;28;108777;-65
2023/09/08 00:48:04;;;;;;;3.95;3.65;;;;;;;24.13;47.61;95587.84;6061775;28;108594;-66
2023/09/08 00:51:09;;;;;;;3.83;3.53;;;;;;;24.13;47.74;95585.97;6061333;28;108728;-64
2023/09/08 00:54:12;;;;;;;3.70;3.40;;;;;;;24.13;47.71;95587.84;6061486;28;108903;-66
2023/09/08 00:57:18;;;;;;;3.53;3.30;;;;;;;24.13;47.55;95585.19;6050256;28;108767;-61
2023/09/08 01:00:21;;;;;;;3.80;3.50;;;;;;;24.13;47.56;95579.81;6060883;28;108563;-60
2023/09/08 01:03:24;;;;;;;3.65;3.35;;;;;;;24.13;47.62;95587.84;6060863;28;108639;-60
2023/09/08 01:06:28;;;;;;;3.70;3.40;;;;;;;24.12;47.66;95584.38;6055422;28;108659;-60
2023/09/08 01:09:32;;;;;;;3.90;3.60;;;;;;;24.12;47.59;95594.28;6056638;28;109082;-59
2023/09/08 01:12:36;;;;;;;3.80;3.50;;;;;;;24.12;47.47;95583.59;6061225;28;108623;-60
2023/09/08 01:15:39;;;;;;;3.75;3.45;;;;;;;24.12;47.70;95584.38;6060791;28;108647;-60
2023/09/08 01:18:43;;;;;;;3.78;3.47;;;;;;;24.12;47.42;95594.28;6050825;28;109117;-59
2023/09/08 01:22:03;;;;;;;3.50;3.20;;;;;;;24.12;47.64;95597.75;6060687;28;108587;-60
2023/09/08 01:25:22;;;;;;;3.60;3.30;;;;;;;24.12;47.86;95583.59;6060936;28;109017;-61
2023/09/08 01:28:26;;;;;;;3.77;3.47;;;;;;;24.12;47.55;95588.94;6064905;28;109019;-60
2023/09/08 01:31:30;;;;;;;3.70;3.40;;;;;;;24.11;47.68;95587.38;6054319;28;109319;-60
2023/09/08 01:34:34;;;;;;;3.80;3.50;;;;;;;24.11;47.80;95582.03;6065103;28;109054;-61
2023/09/08 01:37:40;;;;;;;3.15;2.95;;;;;;;24.10;47.85;95567.06;6064982;28;108788;-60
2023/09/08 01:40:45;;;;;;;3.90;3.60;;;;;;;24.11;47.65;95571.31;6055126;28;108701;-61
2023/09/08 01:43:48;;;;;;;3.88;3.58;;;;;;;24.10;47.64;95569.75;6064204;28;108876;-60
2023/09/08 01:46:56;;;;;;;3.60;3.30;;;;;;;24.10;47.54;95573.22;6064126;28;108779;-61
2023/09/08 01:49:59;;;;;;;3.70;3.40;;;;;;;24.10;47.60;95573.22;6064935;28;108752;-62
2023/09/08 01:53:02;;;;;;;3.30;3.10;;;;;;;24.09;47.22;95576.97;6053676;28;108756;-61
2023/09/08 01:56:08;;;;;;;3.67;3.38;;;;;;;24.10;47.75;95580.44;6064651;28;108630;-60
2023/09/08 01:59:16;;;;;;;3.50;3.20;;;;;;;24.10;47.66;95575.88;6064134;28;108706;-61
2023/09/08 02:02:19;;;;;;;3.42;3.13;;;;;;;24.09;47.53;95568.16;6063858;28;109202;-61
2023/09/08 02:05:23;;;;;;;3.70;3.40;;;;;;;24.10;47.55;95567.06;6053843;28;109171;-60
2023/09/08 02:08:26;;;;;;;3.43;3.13;;;;;;;24.10;47.72;95567.06;6064170;28;108935;-70
2023/09/08 02:11:30;;;;;;;3.55;3.25;;;;;;;24.08;47.82;95564.72;6064100;28;108827;-70
2023/09/08 02:14:33;;;;;;;3.60;3.30;;;;;;;24.09;47.53;95562.81;6060293;28;109605;-71
2023/09/08 02:17:36;;;;;;;3.75;3.45;;;;;;;24.09;47.70;95568.97;6058492;28;108931;-70
2023/09/08 02:20:39;;;;;;;3.30;3.10;;;;;;;24.08;47.75;95558.56;6063909;28;108924;-70
2023/09/08 02:23:43;;;;;;;3.30;3.00;;;;;;;24.07;47.67;95544.41;6063996;28;108759;-70
2023/09/08 02:26:48;;;;;;;3.47;3.17;;;;;;;24.07;47.60;95548.97;6053373;28;108900;-70
2023/09/08 02:29:51;;;;;;;3.87;3.57;;;;;;;24.07;47.68;95554.31;6063637;28;108882;-71
2023/09/08 02:32:55;;;;;;;3.23;3.03;;;;;;;24.08;47.58;95555.91;6063780;28;108947;-70
2023/09/08 02:36:03;;;;;;;3.37;3.17;;;;;;;24.08;47.58;95550.56;6064232;28;108861;-70
2023/09/08 02:39:06;;;;;;;3.55;3.25;;;;;;;24.08;47.91;95547.88;6052183;28;108784;-70
2023/09/08 02:42:11;;;;;;;3.50;3.20;;;;;;;24.07;47.67;95546.28;6063535;28;108637;-70
2023/09/08 02:45:14;;;;;;;3.50;3.20;;;;;;;24.07;47.52;95546.28;6063043;28;109053;-71
2023/09/08 02:48:17;;;;;;;3.33;3.10;;;;;;;24.07;47.94;95543.63;6059246;28;108612;-69
2023/09/08 02:51:21;;;;;;;3.80;3.50;;;;;;;24.06;47.70;95548.19;6058003;28;108802;-70
2023/09/08 02:54:24;;;;;;;3.20;3.00;;;;;;;24.06;47.76;95542.03;6063624;28;108900;-70
2023/09/08 02:57:28;;;;;;;3.70;3.40;;;;;;;24.05;47.80;95540.47;6063469;28;108943;-70
2023/09/08 03:00:31;;;;;;;3.60;3.30;;;;;;;24.05;47.60;95529.78;6053263;28;108726;-70
2023/09/08 03:03:34;;;;;;;3.10;2.90;;;;;;;24.04;47.71;95529.00;6063486;28;110030;-71
2023/09/08 03:06:38;;;;;;;3.50;3.20;;;;;;;24.05;48.04;95532.44;6063209;28;108673;-69
2023/09/08 03:09:41;;;;;;;3.22;3.03;;;;;;;24.05;47.79;95540.47;6063039;28;108757;-70
2023/09/08 03:12:45;;;;;;;3.17;2.97;;;;;;;24.04;47.74;95539.69;6052250;28;112046;-70
2023/09/08 03:15:48;;;;;;;3.40;3.10;;;;;;;24.04;47.88;95539.69;6063044;28;108751;-69
2023/09/08 03:18:51;;;;;;;3.60;3.30;;;;;;;24.04;47.90;95536.22;6062933;28;108597;-63
2023/09/08 03:21:55;;;;;;;3.15;2.95;;;;;;;24.04;47.61;95536.22;6062506;28;108618;-63
2023/09/08 03:24:58;;;;;;;3.60;3.30;;;;;;;24.03;47.75;95537.31;6052646;28;109079;-63
2023/09/08 03:28:02;;;;;;;3.77;3.47;;;;;;;24.03;47.73;95540.00;6062765;28;108664;-63
2023/09/08 03:31:06;;;;;;;3.63;3.33;;;;;;;24.00;47.72;95532.56;6062898;28;108566;-62
2023/09/08 03:34:09;;;;;;;3.60;3.30;;;;;;;24.03;47.65;95538.09;6057462;28;108744;-63
2023/09/08 03:37:12;;;;;;;3.65;3.35;;;;;;;24.03;47.75;95534.66;6056670;28;108989;-63
2023/09/08 03:40:15;;;;;;;3.30;3.00;;;;;;;24.01;47.93;95540.28;6062703;28;108721;-63
2023/09/08 03:43:20;;;;;;;3.53;3.22;;;;;;;24.01;47.68;95539.47;6062402;28;108916;-62
2023/09/08 03:46:24;;;;;;;3.30;3.10;;;;;;;24.02;47.67;95541.06;6051244;28;109272;-63
2023/09/08 03:49:27;;;;;;;3.60;3.30;;;;;;;24.01;47.42;95534.91;6062219;28;108603;-63
2023/09/08 03:52:30;;;;;;;3.20;2.90;;;;;;;24.02;48.01;95533.03;6062427;28;108590;-63
2023/09/08 03:55:33;;;;;;;3.40;3.10;;;;;;;24.01;47.81;95534.13;6061921;28;108974;-63
2023/09/08 03:58:38;;;;;;;3.58;3.28;;;;;;;24.02;47.74;95533.03;6051388;28;109221;-63
2023/09/08 04:01:41;;;;;;;3.58;3.28;;;;;;;24.01;47.45;95542.16;6061777;28;108681;-63
2023/09/08 04:04:44;;;;;;;3.33;3.13;;;;;;;24.02;47.83;95541.06;6062456;28;108742;-63
2023/09/08 04:07:47;;;;;;;3.38;3.10;;;;;;;24.03;47.92;95542.66;6061862;28;108993;-63
2023/09/08 04:10:50;;;;;;;3.15;2.95;;;;;;;24.00;47.74;95532.56;6051191;28;109532;-62
2023/09/08 04:13:55;;;;;;;3.40;3.20;;;;;;;24.01;47.83;95539.47;6062427;28;109136;-62
2023/09/08 04:16:58;;;;;;;3.40;3.10;;;;;;;24.02;47.78;95541.06;6062161;28;108660;-62
2023/09/08 04:20:01;;;;;;;3.00;2.80;;;;;;;24.01;47.67;95539.47;6053928;28;108847;-64
2023/09/08 04:23:04;;;;;;;3.40;3.10;;;;;;;24.00;48.07;95541.38;6060952;28;109039;-63
2023/09/08 04:26:08;;;;;;;3.60;3.30;;;;;;;24.00;47.63;95536.03;6061244;28;108909;-63
2023/09/08 04:29:12;;;;;;;3.57;3.27;;;;;;;23.98;47.85;95538.19;6062000;28;108780;-65
2023/09/08 04:32:15;;;;;;;3.22;2.92;;;;;;;23.99;47.67;95553.13;6050316;28;108781;-65
2023/09/08 04:35:18;;;;;;;3.40;3.10;;;;;;;24.00;47.66;95546.72;6061823;28;108944;-64
2023/09/08 04:38:21;;;;;;;3.50;3.20;;;;;;;24.01;47.88;95550.19;6061254;28;108746;-65
2023/09/08 04:41:24;;;;;;;3.13;2.92;;;;;;;24.00;47.39;95556.63;6061218;28;109131;-64
2023/09/08 04:44:29;;;;;;;3.78;3.47;;;;;;;23.99;47.35;95557.69;6050883;28;109125;-65
2023/09/08 04:47:32;;;;;;;3.50;3.20;;;;;;;24.00;48.04;95552.06;6060965;28;108862;-65
2023/09/08 04:50:35;;;;;;;2.97;2.70;;;;;;;23.99;47.73;95550.44;6061525;28;108663;-65
2023/09/08 04:53:38;;;;;;;3.03;2.83;;;;;;;23.99;47.83;95563.03;6056313;28;109091;-64
2023/09/08 04:56:42;;;;;;;3.30;3.00;;;;;;;24.00;47.52;95553.94;6055679;28;108896;-64
2023/09/08 04:59:47;;;;;;;3.35;3.05;;;;;;;24.00;47.85;95551.28;6061283;28;108995;-64
2023/09/08 05:02:50;;;;;;;3.30;3.00;;;;;;;23.99;47.69;95557.69;6064363;28;108686;-65
2023/09/08 05:05:53;;;;;;;3.50;3.10;;;;;;;23.99;47.85;95558.47;6055235;28;108786;-65
2023/09/08 05:08:56;;;;;;;3.42;3.13;;;;;;;24.01;47.79;95555.53;6064963;28;108873;-65
2023/09/08 05:12:00;;;;;;;2.97;2.77;;;;;;;23.99;47.84;95563.81;6065098;28;109041;-65
2023/09/08 05:15:10;;;;;;;3.40;3.10;;;;;;;23.98;47.80;95553.44;6065245;28;108751;-64
2023/09/08 05:18:13;;;;;;;3.40;3.10;;;;;;;23.99;47.68;95563.03;6055146;28;109856;-64
2023/09/08 05:21:16;;;;;;;3.30;3.00;;;;;;;24.00;47.83;95567.31;6065241;28;108819;-64
2023/09/08 05:24:20;;;;;;;3.40;3.10;;;;;;;24.00;47.31;95564.63;6065244;28;108696;-64
2023/09/08 05:27:24;;;;;;;3.40;3.10;;;;;;;24.00;47.79;95564.63;6064683;28;108944;-64
2023/09/08 05:30:28;;;;;;;3.60;3.00;;;;;;;23.99;47.39;95561.16;6055614;28;110768;-65
2023/09/08 05:33:31;;;;;;;2.97;2.78;;;;;;;24.00;47.70;95561.97;6064941;28;108804;-63
2023/09/08 05:36:36;;;;;;;3.40;3.10;;;;;;;24.00;47.46;95559.28;6064775;28;108657;-63
2023/09/08 05:39:39;;;;;;;3.20;2.90;;;;;;;24.01;47.49;95550.19;6058044;28;108847;-63
2023/09/08 05:42:43;;;;;;;3.00;2.70;;;;;;;24.03;47.54;95561.38;6062458;28;108768;-62
2023/09/08 05:45:49;;;;;;;3.30;3.00;;;;;;;24.08;47.22;95561.25;6064433;28;108813;-62
2023/09/08 05:48:52;;;;;;;3.22;3.00;;;;;;;24.17;47.17;95564.75;6064734;28;108810;-62
2023/09/08 05:51:55;;;;;;;3.30;3.00;;;;;;;24.30;47.04;95569.22;6055395;28;110098;-63
2023/09/08 05:54:58;;;;;;;3.10;2.90;;;;;;;24.37;46.70;95574.94;6064518;28;108628;-62
2023/09/08 05:58:07;;;;;;;3.05;2.78;;;;;;;24.46;46.67;95572.28;6064332;28;108567;-62
2023/09/08 06:01:11;;;;;;;3.20;2.90;;;;;;;24.53;46.47;95574.53;6064270;28;108675;-62
2023/09/08 06:04:14;;;;;;;3.00;2.70;;;;;;;24.63;46.46;95569.69;6054240;28;109660;-62
2023/09/08 06:07:17;;;;;;;3.30;3.00;;;;;;;24.72;46.42;95570.56;6064480;28;109109;-62
2023/09/08 06:10:21;;;;;;;2.90;2.70;;;;;;;24.78;46.18;95568.53;6064155;28;108622;-62
2023/09/08 06:13:24;;;;;;;3.20;2.90;;;;;;;24.88;46.06;95570.94;6059094;28;108802;-62
2023/09/08 06:16:29;;;;;;;3.00;2.70;;;;;;;24.96;46.05;95570.16;6058972;28;108722;-63
2023/09/08 06:19:32;;;;;;;2.90;2.70;;;;;;;25.03;45.72;95573.19;6064682;28;108643;-63
2023/09/08 06:22:35;;;;;;;2.90;2.70;;;;;;;25.12;45.65;95577.75;6063932;28;108603;-63
2023/09/08 06:25:38;;;;;;;3.05;2.75;;;;;;;25.18;45.46;95573.81;6054543;28;109723;-63
2023/09/08 06:28:43;;;;;;;3.40;3.10;;;;;;;25.23;45.33;95574.47;6063827;28;108973;-63
2023/09/08 06:31:47;;;;;;;3.15;2.85;;;;;;;25.27;44.94;95583.47;6063931;28;109069;-63
2023/09/08 06:34:50;;;;;;;3.08;2.88;;;;;;;25.33;45.48;95582.19;6063797;28;108717;-62
2023/09/08 06:37:54;;;;;;;2.70;2.50;;;;;;;25.40;44.96;95589.81;6053272;28;108709;-63
2023/09/08 06:40:57;;;;;;;3.33;3.00;;;;;;;25.46;44.87;95593.13;6063797;28;108641;-62
2023/09/08 06:44:00;;;;;;;3.25;2.95;;;;;;;25.49;44.95;95598.66;6064056;28;108589;-63
2023/09/08 06:47:06;;;;;;;3.05;2.75;;;;;;;25.54;44.89;95589.66;6062848;28;109143;-63
2023/09/08 06:50:10;;;;;;;3.17;2.97;;;;;;;25.55;44.94;95592.03;6054820;28;109173;-61
2023/09/08 06:53:13;;;;;;;3.00;2.80;;;;;;;25.58;44.63;95591.41;6063742;28;108759;-61
2023/09/08 06:56:16;;;;;;;3.20;2.90;;;;;;;25.64;44.65;95595.50;6063536;28;108702;-61
2023/09/08 06:59:19;;;;;;;3.10;2.80;;;;;;;25.67;44.72;95586.81;6054532;28;108753;-62
2023/09/08 07:02:24;;;;;;;3.38;3.08;;;;;;;25.73;44.56;95594.72;6062705;28;108790;-62
2023/09/08 07:05:27;;;;;;;3.35;3.05;;;;;;;25.75;44.37;95585.25;6063453;28;109048;-61
2023/09/08 07:08:30;;;;;;;3.20;2.90;;;;;;;25.68;44.70;95591.09;6062973;28;108699;-62
2023/09/08 07:11:34;;;;;;;6.17;5.67;;;;;;;25.49;44.67;95587.94;6052634;28;109199;-61
2023/09/08 07:14:38;;;;;;;7.70;7.00;;;;;;;25.36;44.66;95580.81;6063140;28;109019;-62
2023/09/08 07:17:42;;;;;;;9.32;8.52;;;;;;;25.32;44.56;95594.03;6063256;28;108579;-62
2023/09/08 07:20:47;;;;;;;9.95;8.80;;;;;;;25.31;44.30;95586.31;6063646;28;108652;-62
2023/09/08 07:23:51;;;;;;;9.75;8.95;;;;;;;25.29;44.80;95591.19;6051913;28;109693;-63
2023/09/08 07:26:54;;;;;;;9.13;8.23;;;;;;;25.29;43.83;95583.94;6062826;28;109113;-61
2023/09/08 07:29:57;;;;;;;8.50;7.80;;;;;;;25.29;44.25;95581.25;6062684;28;108878;-60
2023/09/08 07:33:04;;;;;;;7.90;7.30;;;;;;;25.29;44.04;95583.16;6057831;28;109336;-61
2023/09/08 07:36:09;;;;;;;8.40;7.50;;;;;;;25.28;43.61;95577.00;6057885;28;109104;-60
2023/09/08 07:39:12;;;;;;;9.13;7.95;;;;;;;25.28;43.99;95582.34;6062578;28;108685;-61
2023/09/08 07:42:15;;;;;;;8.27;7.47;;;;;;;25.29;43.77;95575.91;6062418;28;108895;-61
2023/09/08 07:45:18;;;;;;;8.27;7.47;;;;;;;25.29;43.84;95572.44;6051295;28;109104;-61
2023/09/08 07:48:23;;;;;;;7.78;6.90;;;;;;;25.31;43.82;95578.25;6062171;28;108750;-60
2023/09/08 07:51:27;;;;;;;8.25;7.45;;;;;;;25.29;43.72;95572.44;6062691;28;108808;-61
2023/09/08 07:54:30;;;;;;;8.02;7.32;;;;;;;25.31;43.79;95571.00;6062122;28;109094;-61
2023/09/08 07:57:33;;;;;;;8.40;7.60;;;;;;;25.31;43.66;95571.00;6052465;28;108618;-61
2023/09/08 08:00:36;;;;;;;9.27;8.48;;;;;;;25.32;43.45;95575.25;6062436;28;108583;-64
2023/09/08 08:03:40;;;;;;;9.67;8.87;;;;;;;25.32;43.52;95574.47;6062030;28;109077;-65
2023/09/08 08:06:44;;;;;;;10.65;9.75;;;;;;;25.26;43.53;95568.50;6059800;28;108810;-65
2023/09/08 08:09:47;;;;;;;11.95;10.98;;;;;;;25.20;43.77;95566.25;6055019;28;109280;-66
2023/09/08 08:12:50;;;;;;;13.38;12.18;;;;;;;25.17;43.66;95569.56;6062021;28;108724;-66
2023/09/08 08:16:00;;;;;;;15.90;14.50;;;;;;;25.23;43.40;95569.13;6062268;28;108613;-66
2023/09/08 08:19:04;;;;;;;17.52;16.02;;;;;;;25.25;43.44;95561.56;6051639;28;108752;-67
2023/09/08 08:22:08;;;;;;;20.47;18.87;;;;;;;25.30;43.07;95557.94;6062246;28;108959;-65
2023/09/08 08:25:11;;;;;;;21.60;19.80;;;;;;;25.31;43.33;95554.94;6062061;28;108822;-65
2023/09/08 08:28:14;;;;;;;21.60;19.80;;;;;;;25.37;43.27;95558.28;6061941;28;108899;-65
2023/09/08 08:31:17;;;;;;;25.80;23.70;;;;;;;25.40;43.45;95549.63;6051446;28;108707;-65
2023/09/08 08:34:22;;;;;;;30.23;27.83;;;;;;;25.39;43.44;95556.09;6061495;28;108944;-65
2023/09/08 08:37:25;;;;;;;30.83;28.33;;;;;;;25.44;43.63;95555.94;6060644;28;108589;-66
2023/09/08 08:40:29;;;;;;;32.90;30.20;;;;;;;25.46;43.96;95561.75;6038271;28;109070;-65
2023/09/08 08:43:33;;;;;;;36.22;33.33;;;;;;;25.50;43.72;95551.19;6027769;28;108800;-64
2023/09/08 08:46:38;;;;;;;37.27;34.20;;;;;;;25.64;43.52;95547.25;6037508;28;108768;-64
2023/09/08 08:49:46;;;;;;;36.47;33.58;;;;;;;25.78;43.23;95557.81;6054774;28;109213;-65
2023/09/08 08:52:49;;;;;;;35.70;32.70;;;;;;;25.88;42.77;95546.78;6056630;28;108756;-67
2023/09/08 08:55:55;;;;;;;34.87;32.07;;;;;;;25.94;42.64;95550.06;6057254;28;109058;-65
2023/09/08 08:58:59;;;;;;;33.20;30.60;;;;;;;25.94;42.75;95545.50;6061023;28;109019;-64
2023/09/08 09:02:03;;;;;;;33.30;30.65;;;;;;;25.93;42.83;95553.88;6060596;28;108768;-65
2023/09/08 09:05:09;;;;;;;32.60;30.10;;;;;;;25.94;43.18;95548.19;6051229;28;108766;-65
2023/09/08 09:08:14;;;;;;;31.65;29.15;;;;;;;25.98;42.55;95551.00;6062126;28;108964;-68
2023/09/08 09:11:17;;;;;;;31.67;29.08;;;;;;;25.96;42.88;95547.84;6061356;28;108743;-65
2023/09/08 09:14:20;;;;;;;31.00;28.60;;;;;;;25.97;42.76;95542.19;6061194;28;108705;-64
2023/09/08 09:17:23;;;;;;;31.50;28.90;;;;;;;25.99;42.78;95531.13;6050396;28;108577;-66
2023/09/08 09:20:28;;;;;;;30.20;27.80;;;;;;;25.98;43.07;95537.59;6061024;28;108869;-65
2023/09/08 09:23:32;;;;;;;30.83;28.42;;;;;;;25.98;42.74;95537.59;6060969;28;108584;-65
2023/09/08 09:26:37;;;;;;;30.08;27.58;;;;;;;25.96;43.05;95531.78;6056125;28;108797;-65
2023/09/08 09:29:46;;;;;;;28.17;25.87;;;;;;;25.95;43.01;95528.31;6056100;28;109193;-66
2023/09/08 09:32:50;;;;;;;27.83;25.55;;;;;;;25.97;43.19;95536.03;6060710;28;108595;-65
2023/09/08 09:35:55;;;;;;;27.85;25.67;;;;;;;25.96;43.00;95527.19;6061548;28;108778;-65
2023/09/08 09:39:00;;;;;;;27.13;25.03;;;;;;;25.99;43.43;95536.50;6050854;28;109015;-66
2023/09/08 09:42:04;;;;;;;27.45;25.25;;;;;;;25.96;43.62;95532.56;6060724;28;108660;-65
2023/09/08 09:45:08;;;;;;;26.73;24.63;;;;;;;25.95;43.12;95535.56;6060311;28;108730;-67
2023/09/08 09:48:12;;;;;;;26.48;24.27;;;;;;;25.94;43.10;95533.97;6063373;28;108883;-65
2023/09/08 09:51:21;;;;;;;25.77;23.77;;;;;;;25.91;43.50;95518.53;6054426;28;108938;-65
2023/09/08 09:54:24;;;;;;;25.58;23.58;;;;;;;25.93;43.63;95522.47;6065112;28;108602;-65
2023/09/08 09:57:28;;;;;;;25.90;23.80;;;;;;;25.92;43.64;95525.47;6064525;28;108633;-65
2023/09/08 10:00:33;;;;;;;25.00;23.10;;;;;;;25.90;43.42;95517.75;6060581;28;109010;-64
2023/09/08 10:03:36;;;;;;;24.30;22.40;;;;;;;25.93;43.45;95519.00;6058674;28;108855;-63
2023/09/08 10:06:40;;;;;;;24.58;22.67;;;;;;;25.90;43.52;95516.97;6064392;28;108614;-65
2023/09/08 10:09:44;;;;;;;24.45;22.55;;;;;;;25.89;44.05;95501.97;6064094;28;108844;-66
2023/09/08 10:12:51;;;;;;;24.58;22.58;;;;;;;25.86;43.66;95505.28;6054578;28;109108;-65
2023/09/08 10:15:58;;;;;;;24.40;22.50;;;;;;;25.85;43.97;95503.69;6064145;28;108677;-65
2023/09/08 10:19:06;;;;;;;24.05;22.23;;;;;;;25.81;43.69;95492.84;6064139;28;108708;-65
2023/09/08 10:22:16;;;;;;;23.80;21.90;;;;;;;25.80;43.65;95496.63;6064117;28;108652;-63
2023/09/08 10:25:22;;;;;;;22.70;21.00;;;;;;;25.79;44.10;95489.69;6053804;28;108745;-63
2023/09/08 10:28:26;;;;;;;22.95;21.17;;;;;;;25.78;43.55;95500.72;6063769;28;108563;-63
2023/09/08 10:31:31;;;;;;;22.83;21.02;;;;;;;25.78;43.86;95498.06;6063856;28;108984;-63
2023/09/08 10:34:35;;;;;;;22.50;20.80;;;;;;;25.78;44.04;95498.84;6060373;28;108672;-64
2023/09/08 10:37:40;;;;;;;22.10;20.40;;;;;;;25.78;44.10;95498.06;6057748;28;109307;-63
2023/09/08 10:40:43;;;;;;;22.23;20.52;;;;;;;25.77;44.06;95496.47;6063612;28;108899;-63
2023/09/08 10:43:55;;;;;;;22.42;20.73;;;;;;;25.73;44.26;95490.19;6063309;28;108696;-63
2023/09/08 10:46:59;;;;;;;22.20;20.50;;;;;;;25.71;44.27;95487.00;6052536;28;109272;-63
2023/09/08 10:50:05;;;;;;;21.80;20.10;;;;;;;25.67;44.12;95493.00;6063774;28;108611;-63
2023/09/08 10:53:14;;;;;;;21.43;19.83;;;;;;;25.67;44.30;95492.22;6063270;28;109059;-63
2023/09/08 10:56:18;;;;;;;21.73;20.03;;;;;;;25.65;44.54;95497.13;6063734;28;108574;-63
2023/09/08 10:59:25;;;;;;;21.10;19.50;;;;;;;25.61;44.01;95490.81;6051751;28;108762;-66
2023/09/08 11:02:36;;;;;;;20.50;18.98;;;;;;;25.63;44.35;95494.75;6063106;28;108695;-63
2023/09/08 11:05:39;;;;;;;21.20;19.50;;;;;;;25.58;44.47;95494.13;6063000;28;108814;-63
2023/09/08 11:08:46;;;;;;;19.88;18.38;;;;;;;25.60;44.30;95491.94;6058314;28;109162;-64
2023/09/08 11:11:49;;;;;;;21.80;20.10;;;;;;;25.58;44.43;95499.50;6057343;28;108746;-63
2023/09/08 11:14:52;;;;;;;19.45;17.95;;;;;;;25.56;44.88;95493.66;6062897;28;109024;-62
2023/09/08 11:17:55;;;;;;;20.10;18.58;;;;;;;25.52;44.74;95480.09;6062757;28;108729;-62
2023/09/08 11:20:59;;;;;;;19.97;18.47;;;;;;;25.53;44.54;95483.56;6053003;28;108839;-62
2023/09/08 11:24:05;;;;;;;20.80;19.20;;;;;;;25.52;44.68;95488.13;6062813;28;109079;-62
2023/09/08 11:27:08;;;;;;;20.17;18.67;;;;;;;25.51;44.51;95480.41;6062874;28;109262;-62
2023/09/08 11:30:13;;;;;;;19.85;18.35;;;;;;;25.51;44.47;95481.19;6063001;28;109059;-62
2023/09/08 11:33:17;;;;;;;19.40;17.90;;;;;;;25.54;44.52;95482.44;6051774;28;108797;-63
2023/09/08 11:36:20;;;;;;;19.80;18.30;;;;;;;25.48;44.98;95483.72;6062295;28;108944;-63
2023/09/08 11:39:25;;;;;;;19.20;17.70;;;;;;;25.50;44.63;95468.91;6062387;28;108930;-63
2023/09/08 11:42:29;;;;;;;19.55;18.05;;;;;;;25.47;44.84;95469.53;6062778;28;108722;-62
2023/09/08 11:45:35;;;;;;;19.08;17.67;;;;;;;25.49;44.44;95458.50;6051167;28;108823;-62
2023/09/08 11:48:39;;;;;;;18.20;16.80;;;;;;;25.47;44.74;95458.81;6062259;28;108961;-63
2023/09/08 11:51:44;;;;;;;18.73;17.23;;;;;;;25.47;44.77;95458.81;6062784;28;108660;-64
2023/09/08 11:54:49;;;;;;;19.20;17.80;;;;;;;25.45;44.83;95449.53;6053594;28;108851;-64
2023/09/08 11:58:09;;;;;;;18.70;17.30;;;;;;;25.47;44.96;95455.34;6062155;28;108996;-63
2023/09/08 12:01:13;;;;;;;18.00;16.70;;;;;;;25.45;45.18;95450.31;6062531;28;108654;-65
2023/09/08 12:04:20;;;;;;;17.88;16.58;;;;;;;25.46;44.82;95451.09;6061638;28;108643;-63
2023/09/08 12:07:23;;;;;;;17.90;16.60;;;;;;;25.44;44.86;95454.09;6051841;28;108878;-64
2023/09/08 12:10:28;;;;;;;17.50;16.20;;;;;;;25.44;45.30;95446.06;6061789;28;108587;-64
2023/09/08 12:13:31;;;;;;;17.63;16.23;;;;;;;25.45;44.81;95441.50;6062416;28;108598;-63
2023/09/08 12:16:35;;;;;;;17.20;15.90;;;;;;;25.42;44.82;95434.88;6062355;28;108879;-63
2023/09/08 12:19:38;;;;;;;17.30;16.00;;;;;;;25.43;44.98;95433.00;6051968;28;109236;-64
2023/09/08 12:22:49;;;;;;;16.98;15.68;;;;;;;25.44;44.89;95429.19;6061964;28;108790;-63
2023/09/08 12:25:54;;;;;;;16.87;15.57;;;;;;;25.45;44.92;95430.78;6061804;28;109277;-63
2023/09/08 12:28:57;;;;;;;17.00;15.70;;;;;;;25.45;44.94;95425.41;6052506;28;109159;-65
2023/09/08 12:32:00;;;;;;;16.88;15.57;;;;;;;25.43;45.02;95425.75;6061227;28;108918;-63
2023/09/08 12:35:05;;;;;;;17.13;15.82;;;;;;;25.44;44.77;95423.84;6061569;28;108854;-63
2023/09/08 12:38:08;;;;;;;16.83;15.52;;;;;;;25.43;44.97;95417.69;6061256;28;108721;-63
2023/09/08 12:41:13;;;;;;;16.02;14.82;;;;;;;25.44;44.91;95419.28;6051231;28;108916;-61
2023/09/08 12:44:16;;;;;;;16.70;15.40;;;;;;;25.44;45.10;95407.75;6061553;28;108918;-61
2023/09/08 12:47:19;;;;;;;16.42;15.13;;;;;;;25.42;45.04;95400.03;6060875;28;108737;-62
2023/09/08 12:50:22;;;;;;;16.38;15.13;;;;;;;25.41;44.88;95403.84;6061623;28;108738;-60
2023/09/08 12:53:25;;;;;;;15.73;14.50;;;;;;;25.43;45.00;95411.56;6050611;28;108815;-60
2023/09/08 12:56:30;;;;;;;16.30;15.00;;;;;;;25.43;44.75;95411.56;6061770;28;108598;-61
2023/09/08 12:59:33;;;;;;;16.00;14.80;;;;;;;25.42;45.15;95415.34;6061845;28;109076;-61
2023/09/08 13:02:36;;;;;;;16.00;14.70;;;;;;;25.41;45.13;95409.19;6056273;28;109101;-61
2023/09/08 13:05:40;;;;;;;15.43;14.32;;;;;;;25.40;45.46;95412.19;6055769;28;108801;-60
2023/09/08 13:08:44;;;;;;;16.02;14.82;;;;;;;25.40;45.17;95412.97;6061244;28;108709;-60
2023/09/08 13:11:48;;;;;;;15.65;14.45;;;;;;;25.38;45.06;95413.31;6061234;28;108603;-60
2023/09/08 13:14:51;;;;;;;15.37;14.17;;;;;;;25.39;45.37;95416.75;6050558;28;109018;-60
2023/09/08 13:17:54;;;;;;;15.37;14.27;;;;;;;25.40;45.12;95412.19;6061243;28;108960;-59
2023/09/08 13:20:57;;;;;;;14.50;13.40;;;;;;;25.39;44.96;95416.75;6061525;28;108691;-61
2023/09/08 13:24:01;;;;;;;14.43;13.33;;;;;;;25.40;45.13;95412.97;6065178;28;108916;-60
2023/09/08 13:27:06;;;;;;;14.90;13.80;;;;;;;25.38;45.13;95407.94;6055027;28;109001;-60
2023/09/08 13:30:10;;;;;;;15.00;13.90;;;;;;;25.38;44.70;95410.63;6065688;28;108954;-60
2023/09/08 13:33:13;;;;;;;14.75;13.65;;;;;;;25.37;45.51;95405.56;6065538;28;108644;-59
2023/09/08 13:36:17;;;;;;;14.40;13.30;;;;;;;25.37;45.07;95416.28;6065018;28;108643;-61
2023/09/08 13:39:20;;;;;;;14.88;13.77;;;;;;;25.37;45.28;95409.03;6056781;28;109848;-59
2023/09/08 13:42:24;;;;;;;14.05;13.05;;;;;;;25.36;45.33;95407.44;6065117;28;108988;-62
2023/09/08 13:45:27;;;;;;;14.80;13.60;;;;;;;25.33;45.33;95418.78;6064483;28;108894;-63
2023/09/08 13:48:31;;;;;;;14.50;13.40;;;;;;;25.33;45.24;95415.31;6055392;28;109107;-67
2023/09/08 13:51:35;;;;;;;14.40;13.30;;;;;;;25.34;45.26;95408.84;6064379;28;108874;-64
2023/09/08 13:54:40;;;;;;;14.23;13.13;;;;;;;25.32;45.23;95405.69;6065034;28;108564;-63
2023/09/08 13:57:48;;;;;;;14.23;13.13;;;;;;;25.34;45.38;95406.16;6064836;28;108608;-63
2023/09/08 14:00:52;;;;;;;14.30;13.20;;;;;;;25.34;45.26;95403.47;6030967;28;108917;-63
2023/09/08 14:03:56;;;;;;;14.10;13.00;;;;;;;25.28;45.52;95394.84;6050169;28;109076;-63
2023/09/08 14:07:02;;;;;;;14.10;13.00;;;;;;;25.33;45.40;95404.59;6061247;28;108817;-62
2023/09/08 14:10:11;;;;;;;13.90;12.88;;;;;;;25.29;45.51;95400.97;6064242;28;108734;-63